createdAt,value
2024-03-12T00:01:50.020Z,32.10
2024-03-12T00:04:18.309Z,31.40
2024-03-12T00:06:46.466Z,34.10
2024-03-12T00:09:14.460Z,32.90
2024-03-12T00:11:43.627Z,31.40
2024-03-12T00:14:11.468Z,34.30
2024-03-12T00:16:41.947Z,35.20
2024-03-12T00:19:10.830Z,31.40
2024-03-12T00:21:38.901Z,34.70
2024-03-12T00:24:06.779Z,32.70
2024-03-12T00:26:34.569Z,33.70
2024-03-12T00:29:02.842Z,31.80
2024-03-12T00:31:30.676Z,33.90
2024-03-12T00:34:01.819Z,32.40
2024-03-12T00:36:30.556Z,32.00
2024-03-12T00:38:58.891Z,35.70
2024-03-12T00:41:26.653Z,30.80
2024-03-12T00:43:55.387Z,35.70
2024-03-12T00:46:23.637Z,37.30
2024-03-12T00:48:51.969Z,39.10
2024-03-12T00:51:19.778Z,34.60
2024-03-12T00:53:50.454Z,31.10
2024-03-12T00:56:18.288Z,33.90
2024-03-12T00:58:46.036Z,31.90
2024-03-12T01:01:16.629Z,31.60
2024-03-12T01:03:44.783Z,31.50
2024-03-12T01:06:12.676Z,31.60
2024-03-12T01:08:40.927Z,31.30
2024-03-12T01:11:08.765Z,33.70
2024-03-12T01:13:36.955Z,30.10
2024-03-12T01:16:05.028Z,32.30
2024-03-12T01:18:33.059Z,29.70
2024-03-12T01:21:01.119Z,34.40
2024-03-12T01:23:28.947Z,33.70
2024-03-12T01:25:56.759Z,35.90
2024-03-12T01:28:25.167Z,33.40
2024-03-12T01:30:53.126Z,32.40
2024-03-12T01:33:20.934Z,33.70
2024-03-12T01:35:49.036Z,32.10
2024-03-12T01:38:16.809Z,36.70
2024-03-12T01:40:44.622Z,33.20
2024-03-12T01:43:14.296Z,34.70
2024-03-12T01:45:44.018Z,31.50
2024-03-12T01:48:12.976Z,30.10
2024-03-12T01:50:41.665Z,33.20
2024-03-12T01:53:12.716Z,34.70
2024-03-12T01:55:45.095Z,34.80
2024-03-12T01:58:15.995Z,34.10
2024-03-12T02:00:45.902Z,31.70
2024-03-12T02:03:14.064Z,29.00
2024-03-12T02:05:43.064Z,30.60
2024-03-12T02:08:12.012Z,31.00
2024-03-12T02:10:39.798Z,32.20
2024-03-12T02:13:07.879Z,35.80
2024-03-12T02:15:37.913Z,32.00
2024-03-12T02:18:09.296Z,30.00
2024-03-12T02:20:39.512Z,32.70
2024-03-12T02:23:07.350Z,30.80
2024-03-12T02:25:35.103Z,32.70
2024-03-12T02:28:04.034Z,33.70
2024-03-12T02:30:32.178Z,30.00
2024-03-12T02:33:01.080Z,30.80
2024-03-12T02:35:29.214Z,31.50
2024-03-12T02:37:56.990Z,32.60
2024-03-12T02:40:24.910Z,31.70
2024-03-12T02:42:52.751Z,33.30
2024-03-12T02:45:22.401Z,34.80
2024-03-12T02:47:50.607Z,35.50
2024-03-12T02:50:19.632Z,39.80
2024-03-12T02:52:47.494Z,35.50
2024-03-12T02:55:15.676Z,34.30
2024-03-12T02:57:44.641Z,31.80
2024-03-12T03:00:14.741Z,34.00
2024-03-12T03:02:45.164Z,37.50
2024-03-12T03:05:14.631Z,34.10
2024-03-12T03:07:43.800Z,31.90
2024-03-12T03:10:13.509Z,35.10
2024-03-12T03:12:46.319Z,33.40
2024-03-12T03:15:15.031Z,35.50
2024-03-12T03:17:44.299Z,35.20
2024-03-12T03:20:13.537Z,39.10
2024-03-12T03:22:42.580Z,40.00
2024-03-12T03:25:13.298Z,38.70
2024-03-12T03:27:41.304Z,38.80
2024-03-12T03:30:11.570Z,34.70
2024-03-12T03:32:40.685Z,40.30
2024-03-12T03:35:08.832Z,41.30
2024-03-12T03:37:36.926Z,40.50
2024-03-12T03:40:05.987Z,35.40
2024-03-12T03:42:34.000Z,39.80
2024-03-12T03:45:01.744Z,41.10
2024-03-12T03:47:35.905Z,41.20
2024-03-12T03:50:05.214Z,41.00
2024-03-12T03:52:33.136Z,39.20
2024-03-12T03:55:01.016Z,36.80
2024-03-12T03:57:31.892Z,43.80
2024-03-12T03:59:59.706Z,39.40
2024-03-12T04:02:28.274Z,43.40
2024-03-12T04:04:57.071Z,42.60
2024-03-12T04:07:26.596Z,44.20
2024-03-12T04:09:56.141Z,48.10
2024-03-12T04:12:24.156Z,40.60
2024-03-12T04:14:52.152Z,43.20
2024-03-12T04:17:20.992Z,42.50
2024-03-12T04:19:49.187Z,44.70
2024-03-12T04:22:20.665Z,45.70
2024-03-12T04:24:48.458Z,47.50
2024-03-12T04:27:16.849Z,43.50
2024-03-12T04:29:44.807Z,43.20
2024-03-12T04:32:12.644Z,46.10
2024-03-12T04:34:41.187Z,45.20
2024-03-12T04:37:09.132Z,44.90
2024-03-12T04:39:39.689Z,44.30
2024-03-12T04:42:08.088Z,45.60
2024-03-12T04:44:36.235Z,45.20
2024-03-12T04:47:05.250Z,44.40
2024-03-12T04:49:33.069Z,46.10
2024-03-12T04:52:01.516Z,48.60
2024-03-12T04:54:29.441Z,46.40
2024-03-12T04:56:58.449Z,48.90
2024-03-12T04:59:26.359Z,44.90
2024-03-12T05:01:54.581Z,47.10
2024-03-12T05:04:23.986Z,42.50
2024-03-12T05:06:52.140Z,46.20
2024-03-12T05:09:20.392Z,45.90
2024-03-12T05:11:49.127Z,45.50
2024-03-12T05:14:17.011Z,44.00
2024-03-12T05:16:47.772Z,47.30
2024-03-12T05:19:15.586Z,49.70
2024-03-12T05:21:48.605Z,49.40
2024-03-12T05:24:19.288Z,49.30
2024-03-12T05:26:50.597Z,46.00
2024-03-12T05:29:27.356Z,51.10
2024-03-12T05:31:55.197Z,49.20
2024-03-12T05:34:30.464Z,53.60
2024-03-12T05:37:05.666Z,52.20
2024-03-12T05:39:59.663Z,52.20
2024-03-12T05:42:46.985Z,48.00
2024-03-12T05:45:33.422Z,52.40
2024-03-12T05:48:13.673Z,54.50
2024-03-12T05:50:43.733Z,56.00
2024-03-12T05:53:12.107Z,57.40
2024-03-12T05:55:42.908Z,56.10
2024-03-12T05:58:13.789Z,64.70
2024-03-12T06:00:41.654Z,55.30
2024-03-12T06:03:09.398Z,62.30
2024-03-12T06:05:37.199Z,56.10
2024-03-12T06:08:05.831Z,58.60
2024-03-12T06:10:33.613Z,63.80
2024-03-12T06:13:01.591Z,61.20
2024-03-12T06:15:31.052Z,64.80
2024-03-12T06:17:58.921Z,59.90
2024-03-12T06:20:28.584Z,66.50
2024-03-12T06:22:56.813Z,60.10
2024-03-12T06:25:24.619Z,58.70
2024-03-12T06:27:53.526Z,59.00
2024-03-12T06:30:21.466Z,63.80
2024-03-12T06:32:49.377Z,68.70
2024-03-12T06:35:18.417Z,60.50
2024-03-12T06:37:46.221Z,57.50
2024-03-12T06:40:18.532Z,60.60
2024-03-12T06:45:14.524Z,58.60
2024-03-12T06:47:43.059Z,60.70
2024-03-12T06:50:11.529Z,61.80
2024-03-12T06:52:39.406Z,60.80
2024-03-12T06:55:17.005Z,68.60
2024-03-12T06:57:49.417Z,60.90
2024-03-12T07:00:24.435Z,63.00
2024-03-12T07:02:52.593Z,59.60
2024-03-12T07:05:21.611Z,62.70
2024-03-12T07:07:49.463Z,58.00
2024-03-12T07:10:18.555Z,61.70
2024-03-12T07:12:47.372Z,56.50
2024-03-12T07:15:17.710Z,60.80
2024-03-12T07:17:45.636Z,61.90
2024-03-12T07:20:16.671Z,62.30
2024-03-12T07:22:46.737Z,64.10
2024-03-12T07:25:15.149Z,57.90
2024-03-12T07:27:43.386Z,58.20
2024-03-12T07:30:12.032Z,52.90
2024-03-12T07:32:40.441Z,57.40
2024-03-12T07:35:11.047Z,53.30
2024-03-12T07:37:40.738Z,57.10
2024-03-12T07:40:10.931Z,51.40
2024-03-12T07:42:42.952Z,51.50
2024-03-12T07:45:11.814Z,46.70
2024-03-12T07:47:42.312Z,51.10
2024-03-12T07:50:12.786Z,47.90
2024-03-12T07:52:40.738Z,51.30
2024-03-12T07:55:11.266Z,47.60
2024-03-12T07:57:39.591Z,52.20
2024-03-12T08:00:16.334Z,49.80
2024-03-12T08:02:44.824Z,44.00
2024-03-12T08:05:13.655Z,45.30
2024-03-12T08:07:41.717Z,50.40
2024-03-12T08:10:11.354Z,44.10
2024-03-12T08:12:41.442Z,48.40
2024-03-12T08:15:14.592Z,46.10
2024-03-12T08:17:44.630Z,43.50
2024-03-12T08:20:15.077Z,42.80
2024-03-12T08:22:43.052Z,43.50
2024-03-12T08:25:12.481Z,44.10
2024-03-12T08:27:43.810Z,40.70
2024-03-12T08:30:13.456Z,48.90
2024-03-12T08:32:44.607Z,44.60
2024-03-12T08:35:12.511Z,36.80
2024-03-12T08:37:40.446Z,42.00
2024-03-12T08:40:09.430Z,41.10
2024-03-12T08:42:44.934Z,42.30
2024-03-12T08:45:22.501Z,44.00
2024-03-12T08:47:52.541Z,43.20
2024-03-12T08:50:20.536Z,43.90
2024-03-12T08:52:48.382Z,44.60
2024-03-12T08:55:18.156Z,42.10
2024-03-12T08:57:46.161Z,42.80
2024-03-12T09:00:14.557Z,39.80
2024-03-12T09:02:43.057Z,38.50
2024-03-12T09:05:11.172Z,38.10
2024-03-12T09:07:39.437Z,42.60
2024-03-12T09:10:13.065Z,37.10
2024-03-12T09:12:44.015Z,39.80
2024-03-12T09:15:12.110Z,37.90
2024-03-12T09:17:40.213Z,38.30
2024-03-12T09:20:11.722Z,39.00
2024-03-12T09:22:41.052Z,37.30
2024-03-12T09:25:09.934Z,37.20
2024-03-12T09:27:38.873Z,40.00
2024-03-12T09:30:08.827Z,39.50
2024-03-12T09:32:36.686Z,36.60
2024-03-12T09:35:05.107Z,37.20
2024-03-12T09:37:37.386Z,39.20
2024-03-12T09:40:09.240Z,39.70
2024-03-12T09:42:38.401Z,40.90
2024-03-12T09:45:09.829Z,40.30
2024-03-12T09:47:38.304Z,43.10
2024-03-12T09:50:12.724Z,38.10
2024-03-12T09:52:41.387Z,40.80
2024-03-12T09:55:12.260Z,35.50
2024-03-12T09:57:45.956Z,41.70
2024-03-12T10:00:20.789Z,51.50
2024-03-12T10:02:51.537Z,38.90
2024-03-12T10:05:24.491Z,40.40
2024-03-12T10:08:08.919Z,39.40
2024-03-12T10:10:39.413Z,40.90
2024-03-12T10:13:16.025Z,36.40
2024-03-12T10:16:00.725Z,38.40
2024-03-12T10:21:02.697Z,36.10
2024-03-12T10:23:34.709Z,37.90
2024-03-12T10:26:20.587Z,39.90
2024-03-12T10:28:52.249Z,44.80
2024-03-12T10:31:21.476Z,39.20
2024-03-12T10:33:50.631Z,42.50
2024-03-12T10:36:33.558Z,38.60
2024-03-12T10:39:13.520Z,44.00
2024-03-12T10:41:44.461Z,39.90
2024-03-12T10:44:12.636Z,39.30
2024-03-12T10:46:41.836Z,39.50
2024-03-12T10:49:13.918Z,41.10
2024-03-12T10:54:15.665Z,43.40
2024-03-12T10:56:47.020Z,41.20
2024-03-12T10:59:17.634Z,46.10
2024-03-12T11:01:46.255Z,41.60
2024-03-12T11:04:14.913Z,45.00
2024-03-12T11:06:42.797Z,44.30
2024-03-12T11:09:19.267Z,44.00
2024-03-12T11:11:48.380Z,50.60
2024-03-12T11:14:17.018Z,43.90
2024-03-12T11:16:44.860Z,50.80
2024-03-12T11:19:24.596Z,47.70
2024-03-12T11:21:53.918Z,49.50
2024-03-12T11:24:44.372Z,50.70
2024-03-12T11:30:15.882Z,45.00
2024-03-12T11:32:52.320Z,48.40
2024-03-12T11:35:22.943Z,53.50
2024-03-12T11:38:00.175Z,53.50
2024-03-12T11:40:32.128Z,55.80
2024-03-12T11:43:00.467Z,50.30
2024-03-12T11:45:37.618Z,52.40
2024-03-12T11:48:08.951Z,50.40
2024-03-12T11:50:40.817Z,53.50
2024-03-12T11:53:23.740Z,49.10
2024-03-12T11:56:06.370Z,55.40
2024-03-12T11:58:42.400Z,53.30
2024-03-12T12:01:12.136Z,53.70
2024-03-12T12:03:40.664Z,54.40
2024-03-12T12:06:11.606Z,55.80
2024-03-12T12:08:46.122Z,51.00
2024-03-12T12:11:21.276Z,59.30
2024-03-12T12:13:49.533Z,57.50
2024-03-12T12:16:18.831Z,56.60
2024-03-12T12:18:48.252Z,58.00
2024-03-12T12:21:20.177Z,53.50
2024-03-12T12:23:49.119Z,56.60
2024-03-12T12:26:22.381Z,58.70
2024-03-12T12:28:53.895Z,51.50
2024-03-12T12:31:23.563Z,52.80
2024-03-12T12:33:53.062Z,52.20
2024-03-12T12:36:26.840Z,57.00
2024-03-12T12:39:02.456Z,52.50
2024-03-12T12:41:44.197Z,50.50
2024-03-12T12:44:18.344Z,51.30
2024-03-12T12:46:49.729Z,52.10
2024-03-12T12:49:18.918Z,52.50
2024-03-12T12:51:48.088Z,54.00
2024-03-12T12:54:17.254Z,48.10
2024-03-12T12:56:48.038Z,56.50
2024-03-12T12:59:21.761Z,52.00
2024-03-12T13:01:50.788Z,50.70
2024-03-12T13:04:28.433Z,56.70
2024-03-12T13:06:58.458Z,48.00
2024-03-12T13:09:33.690Z,46.90
2024-03-12T13:12:09.202Z,45.90
2024-03-12T13:14:38.512Z,47.90
2024-03-12T13:17:10.407Z,48.60
2024-03-12T13:19:38.543Z,47.70
2024-03-12T13:22:13.471Z,46.40
2024-03-12T13:24:45.539Z,44.40
2024-03-12T13:27:15.305Z,45.80
2024-03-12T13:29:46.971Z,46.80
2024-03-12T13:32:15.322Z,48.10
2024-03-12T13:34:43.423Z,45.60
2024-03-12T13:37:14.007Z,40.70
2024-03-12T13:39:42.079Z,44.30
2024-03-12T13:42:11.591Z,47.00
2024-03-12T13:44:39.483Z,45.00
2024-03-12T13:47:07.436Z,39.40
2024-03-12T13:49:35.547Z,47.00
2024-03-12T13:52:03.626Z,38.40
2024-03-12T13:54:31.906Z,43.70
2024-03-12T13:56:59.884Z,41.20
2024-03-12T13:59:29.023Z,40.20
2024-03-12T14:01:58.169Z,46.90
2024-03-12T14:04:32.190Z,41.00
2024-03-12T14:07:00.789Z,38.90
2024-03-12T14:09:28.890Z,39.10
2024-03-12T14:11:56.746Z,42.50
2024-03-12T14:14:24.790Z,42.50
2024-03-12T14:16:53.052Z,42.80
2024-03-12T14:19:21.975Z,43.10
2024-03-12T14:21:49.924Z,38.10
2024-03-12T14:24:17.990Z,42.10
2024-03-12T14:26:45.765Z,41.20
2024-03-12T14:29:13.522Z,36.50
2024-03-12T14:31:42.818Z,35.30
2024-03-12T14:34:11.036Z,38.50
2024-03-12T14:36:39.145Z,36.80
2024-03-12T14:39:09.158Z,34.50
2024-03-12T14:41:37.173Z,36.60
2024-03-12T14:44:06.061Z,31.60
2024-03-12T14:46:34.614Z,34.40
2024-03-12T14:49:02.645Z,34.40
2024-03-12T14:51:30.895Z,34.70
2024-03-12T14:53:58.718Z,40.10
2024-03-12T14:56:26.993Z,33.00
2024-03-12T14:58:55.253Z,34.60
2024-03-12T15:01:24.306Z,35.10
2024-03-12T15:03:52.347Z,37.60
2024-03-12T15:06:20.207Z,36.50
2024-03-12T15:08:48.195Z,36.30
2024-03-12T15:11:16.086Z,34.90
2024-03-12T15:13:44.546Z,30.50
2024-03-12T15:16:12.494Z,31.90
2024-03-12T15:18:40.918Z,33.40
2024-03-12T15:21:09.067Z,31.90
2024-03-12T15:23:36.937Z,30.10
2024-03-12T15:26:06.553Z,29.20
2024-03-12T15:28:34.858Z,29.60
2024-03-12T15:31:05.191Z,33.60
2024-03-12T15:33:34.446Z,33.10
2024-03-12T15:36:02.384Z,33.00
2024-03-12T15:38:33.214Z,39.80
2024-03-12T15:41:00.953Z,38.50
2024-03-12T15:43:29.032Z,39.80
2024-03-12T15:45:59.667Z,42.00
2024-03-12T15:48:27.523Z,38.30
2024-03-12T15:50:55.927Z,40.60
2024-03-12T15:53:24.162Z,39.30
2024-03-12T15:55:52.229Z,42.10
2024-03-12T15:58:20.200Z,38.40
2024-03-12T16:00:48.132Z,42.40
2024-03-12T16:03:16.268Z,39.20
2024-03-12T16:05:44.267Z,40.20
2024-03-12T16:08:12.476Z,41.20
2024-03-12T16:10:40.197Z,37.70
2024-03-12T16:13:09.423Z,43.30
2024-03-12T16:15:38.585Z,40.40
2024-03-12T16:18:07.022Z,39.70
2024-03-12T16:20:35.035Z,41.30
2024-03-12T16:23:03.764Z,48.40
2024-03-12T16:25:31.738Z,43.00
2024-03-12T16:27:59.673Z,45.10
2024-03-12T16:30:27.733Z,49.40
2024-03-12T16:32:56.102Z,46.50
2024-03-12T16:35:24.851Z,47.50
2024-03-12T16:37:52.717Z,48.90
2024-03-12T16:40:21.211Z,43.50
2024-03-12T16:42:49.830Z,47.10
2024-03-12T16:45:17.768Z,47.60
2024-03-12T16:47:45.666Z,45.40
2024-03-12T16:50:16.395Z,43.20
2024-03-12T16:52:44.706Z,42.90
2024-03-12T16:55:13.493Z,44.00
2024-03-12T16:57:42.096Z,44.40
2024-03-12T17:00:15.604Z,44.30
2024-03-12T17:02:44.201Z,50.20
2024-03-12T17:05:23.257Z,44.10
2024-03-12T17:07:54.278Z,45.00
2024-03-12T17:10:25.312Z,46.20
2024-03-12T17:12:53.735Z,48.30
2024-03-12T17:15:22.570Z,43.20
2024-03-12T17:17:50.918Z,43.90
2024-03-12T17:20:18.869Z,50.60
2024-03-12T17:22:48.071Z,47.40
2024-03-12T17:25:18.585Z,46.60
2024-03-12T17:27:49.038Z,46.80
2024-03-12T17:30:17.062Z,45.30
2024-03-12T17:32:47.411Z,54.50
2024-03-12T17:35:16.581Z,45.10
2024-03-12T17:37:45.436Z,46.40
2024-03-12T17:40:17.070Z,49.70
2024-03-12T17:42:46.655Z,47.10
2024-03-12T17:45:16.864Z,45.30
2024-03-12T17:47:52.600Z,48.90
2024-03-12T17:50:25.809Z,53.60
2024-03-12T17:52:55.450Z,64.90
2024-03-12T17:55:23.657Z,68.90
2024-03-12T17:57:52.727Z,73.30
2024-03-12T18:00:22.396Z,72.70
2024-03-12T18:02:51.140Z,82.00
2024-03-12T18:05:23.198Z,77.20
2024-03-12T18:07:54.545Z,78.80
2024-03-12T18:10:26.697Z,74.40
2024-03-12T18:12:55.028Z,75.40
2024-03-12T18:15:25.200Z,66.00
2024-03-12T18:17:54.353Z,67.10
2024-03-12T18:20:31.627Z,65.60
2024-03-12T18:22:59.989Z,61.10
2024-03-12T18:25:28.015Z,61.50
2024-03-12T18:27:59.223Z,60.30
2024-03-12T18:30:28.185Z,67.00
2024-03-12T18:32:56.246Z,60.50
2024-03-12T18:35:25.272Z,61.20
2024-03-12T18:37:53.230Z,57.20
2024-03-12T18:40:23.387Z,59.90
2024-03-12T18:42:52.338Z,62.40
2024-03-12T18:45:23.548Z,57.10
2024-03-12T18:47:52.270Z,56.30
2024-03-12T18:50:22.068Z,57.50
2024-03-12T18:52:50.426Z,55.10
2024-03-12T18:55:19.471Z,53.90
2024-03-12T18:57:47.976Z,57.80
2024-03-12T19:00:19.861Z,55.30
2024-03-12T19:02:49.454Z,52.80
2024-03-12T19:05:23.283Z,53.00
2024-03-12T19:07:52.435Z,54.90
2024-03-12T19:10:21.127Z,50.50
2024-03-12T19:12:50.636Z,54.50
2024-03-12T19:15:22.758Z,56.30
2024-03-12T19:17:52.055Z,56.90
2024-03-12T19:20:21.169Z,58.50
2024-03-12T19:22:51.098Z,53.80
2024-03-12T19:25:20.859Z,51.40
2024-03-12T19:27:50.337Z,59.10
2024-03-12T19:30:21.707Z,59.30
2024-03-12T19:32:53.498Z,54.30
2024-03-12T19:35:22.635Z,52.30
2024-03-12T19:37:51.041Z,58.70
2024-03-12T19:40:22.904Z,55.60
2024-03-12T19:42:52.464Z,59.10
2024-03-12T19:45:26.979Z,57.30
2024-03-12T19:47:57.934Z,56.80
2024-03-12T19:50:26.458Z,58.40
2024-03-12T19:52:56.515Z,52.70
2024-03-12T19:55:26.572Z,56.40
2024-03-12T19:58:00.777Z,56.60
2024-03-12T20:00:31.981Z,54.80
2024-03-12T20:03:01.810Z,52.60
2024-03-12T20:05:31.584Z,55.90
2024-03-12T20:08:05.561Z,56.40
2024-03-12T20:10:34.235Z,57.10
2024-03-12T20:13:05.849Z,57.30
2024-03-12T20:15:34.251Z,49.50
2024-03-12T20:18:02.749Z,56.60
2024-03-12T20:20:31.572Z,51.80
2024-03-12T20:22:59.987Z,58.20
2024-03-12T20:25:28.083Z,57.20
2024-03-12T20:27:56.764Z,54.90
2024-03-12T20:30:29.280Z,53.30
2024-03-12T20:33:00.034Z,51.00
2024-03-12T20:35:31.611Z,57.50
2024-03-12T20:37:59.798Z,53.30
2024-03-12T20:40:29.135Z,53.30
2024-03-12T20:43:00.450Z,59.40
2024-03-12T20:45:30.339Z,59.30
2024-03-12T20:48:01.843Z,60.20
2024-03-12T20:50:30.233Z,50.30
2024-03-12T20:52:58.813Z,52.90
2024-03-12T20:55:26.747Z,48.80
2024-03-12T20:57:54.661Z,57.00
2024-03-12T21:00:29.804Z,49.60
2024-03-12T21:02:58.435Z,52.90
2024-03-12T21:05:32.104Z,56.40
2024-03-12T21:08:00.339Z,53.90
2024-03-12T21:10:28.415Z,53.10
2024-03-12T21:12:57.162Z,54.90
2024-03-12T21:15:26.148Z,63.30
2024-03-12T21:17:54.349Z,57.20
2024-03-12T21:20:34.591Z,63.20
2024-03-12T21:23:07.245Z,65.00
2024-03-12T21:25:35.434Z,64.20
2024-03-12T21:28:04.296Z,66.20
2024-03-12T21:30:32.815Z,65.20
2024-03-12T21:33:01.072Z,60.20
2024-03-12T21:35:30.167Z,65.00
2024-03-12T21:37:58.807Z,61.70
2024-03-12T21:40:28.162Z,50.70
2024-03-12T21:42:56.267Z,55.00
2024-03-12T21:45:24.916Z,52.40
2024-03-12T21:47:54.552Z,54.60
2024-03-12T21:50:23.053Z,54.20
2024-03-12T21:52:51.238Z,46.80
2024-03-12T21:55:19.864Z,47.10
2024-03-12T21:57:48.560Z,43.70
2024-03-12T22:00:20.966Z,41.10
2024-03-12T22:02:50.599Z,42.80
2024-03-12T22:05:21.440Z,41.20
2024-03-12T22:07:52.425Z,37.20
2024-03-12T22:10:20.670Z,35.60
2024-03-12T22:12:49.827Z,39.20
2024-03-12T22:15:18.160Z,37.90
2024-03-12T22:17:47.262Z,28.30
2024-03-12T22:20:17.618Z,31.20
2024-03-12T22:22:46.585Z,30.60
2024-03-12T22:25:16.221Z,28.70
2024-03-12T22:27:45.415Z,29.00
2024-03-12T22:30:14.495Z,27.50
2024-03-12T22:32:46.543Z,28.70
2024-03-12T22:35:15.163Z,29.90
2024-03-12T22:37:44.922Z,25.60
2024-03-12T22:40:14.048Z,29.40
2024-03-12T22:42:42.732Z,28.60
2024-03-12T22:45:13.313Z,29.10
2024-03-12T22:47:42.974Z,29.40
2024-03-12T22:50:11.819Z,26.10
2024-03-12T22:52:42.410Z,34.90
2024-03-12T22:55:13.419Z,32.50
2024-03-12T22:57:43.297Z,36.40
2024-03-12T23:00:30.669Z,29.80
2024-03-12T23:03:02.322Z,29.30
2024-03-12T23:08:07.324Z,24.00
2024-03-12T23:10:37.885Z,26.20
2024-03-12T23:13:08.307Z,28.20
2024-03-12T23:15:36.633Z,28.50
2024-03-12T23:18:06.556Z,22.90
2024-03-12T23:20:36.164Z,24.50
2024-03-12T23:23:06.495Z,23.50
2024-03-12T23:25:38.172Z,22.00
2024-03-12T23:28:07.145Z,23.90
2024-03-12T23:30:36.371Z,22.80
2024-03-12T23:33:09.703Z,23.90
2024-03-12T23:35:39.637Z,22.10
2024-03-12T23:38:08.971Z,22.90
2024-03-12T23:40:37.028Z,20.30
2024-03-12T23:43:05.937Z,23.80
2024-03-12T23:45:34.663Z,20.60
2024-03-12T23:48:04.164Z,20.80
2024-03-12T23:50:33.918Z,22.10
2024-03-12T23:53:03.478Z,22.30
2024-03-12T23:55:32.843Z,20.50
2024-03-12T23:58:02.045Z,22.20
